Baltic Frost — 9HA2868 — position and weather

sailwx.info

Track history (hours):
 
Tides and Currents Weather Stations Pressure Air Temp Water Temp Dewpoint Dewpoint Depression Visibility Wind Speed Wind Dir Waves Ship Positions

Baltic Frost

Last reported at 2015-Jul-06 19:25 UTC. Time now 2015-Jul-07 02:35 UTC.
Position N 39°23' W 000°16'.

Length 182 m; draft 10.2 m.

Type: Ship. MMSI: 256495000.

Date/timePositionNaut miles runAvg speedWind from/ knotsBaromVisibWave heightAir tempDewpointWater temp
2015-Jul-06 19:25N 39°23' W 000°16'0 0.0
2015-Jul-06 18:19N 39°24' W 000°16'2 0.1
2015-Jul-06 00:33N 39°23' W 000°14'3712.3
2015-Jul-05 21:33N 38°57' E 000°21'1313.1
2015-Jul-05 20:32N 38°45' E 000°27'1212.1
2015-Jul-05 19:33N 38°34' E 000°22'1212.4
2015-Jul-05 18:34N 38°24' E 000°13'1313.3
2015-Jul-05 17:33N 38°13' E 000°03'1313.0
2015-Jul-05 16:33N 38°02' W 000°06'9 9.1
2015-Jul-05 15:33N 37°55' W 000°12'1313.4
2015-Jul-05 14:33N 37°44' W 000°22'1313.2
2015-Jul-05 13:33N 37°33' W 000°31'1313.1
2015-Jul-05 12:33N 37°24' W 000°44'1313.0
2015-Jul-05 11:33N 37°15' W 000°56'1513.0
2015-Jul-05 10:26N 37°06' W 001°10'1112.8
2015-Jul-05 09:33N 36°58' W 001°20'3812.6
2015-Jul-05 06:32N 36°33' W 001°56'1212.4
2015-Jul-05 05:32N 36°25' W 002°07'1211.7
2015-Jul-05 04:30N 36°21' W 002°22'1612.7
2015-Jul-05 03:16N 36°18' W 002°41'12113.7
2015-Jul-04 18:27N 36°01' W 005°09'1314.7
2015-Jul-04 17:34N 35°58' W 005°25'11912.7
2015-Jul-04 08:12N 36°11' W 007°51'912.9
2015-Jul-04 07:31N 36°14' W 008°01'1313.0
2015-Jul-04 06:33N 36°17' W 008°17'1312.9
2015-Jul-04 05:33N 36°20' W 008°32'1312.8
2015-Jul-04 04:33N 36°23' W 008°47'1312.7
2015-Jul-04 03:33N 36°27' W 009°03'1312.8
2015-Jul-04 02:33N 36°30' W 009°18'1212.3
2015-Jul-04 01:33N 36°38' W 009°29'1312.5
2015-Jul-04 00:33N 36°48' W 009°39'1313.2
2015-Jul-03 23:33N 37°01' W 009°42'1313.3
2015-Jul-03 22:34N 37°14' W 009°46'1413.5
2015-Jul-03 21:33N 37°27' W 009°50'1413.5
2015-Jul-03 20:33N 37°40' W 009°54'1313.2
2015-Jul-03 19:34N 37°53' W 009°58'1313.3
2015-Jul-03 18:33N 38°06' W 010°01'1313.1
2015-Jul-03 17:33N 38°19' W 010°05'1312.7
2015-Jul-03 16:33N 38°31' W 010°08'1313.4
2015-Jul-03 15:33N 38°44' W 010°11'1212.4
2015-Jul-03 14:33N 38°57' W 010°11'1312.5
2015-Jul-03 13:33N 39°09' W 010°11'1312.8
2015-Jul-03 12:33N 39°22' W 010°11'62112.4
2015-Jul-01 10:29N 49°06' W 005°16'5512.9
2015-Jul-01 06:12N 49°34' W 004°02'811.1
2015-Jul-01 05:29N 49°37' W 003°51'1410.9
2015-Jul-01 04:13N 49°44' W 003°33'1311.7
2015-Jul-01 03:04N 49°52' W 003°16'713.1
2015-Jul-01 02:31N 49°56' W 003°06'1414.1
2015-Jul-01 01:33N 50°00' W 002°46'1515.4
2015-Jul-01 00:33N 50°05' W 002°23'1615.9
2015-Jun-30 23:34N 50°09' W 001°59'1514.8
2015-Jun-30 22:33N 50°13' W 001°37'1313.3
2015-Jun-30 21:34N 50°17' W 001°17'1211.7
2015-Jun-30 20:34N 50°20' W 000°59'1110.4
2015-Jun-30 19:32N 50°22' W 000°43'1010.5
2015-Jun-30 18:33N 50°25' W 000°27'1611.9
2015-Jun-30 17:11N 50°30' W 000°03'813.3
2015-Jun-30 16:33N 50°32' E 000°09'1414.3
2015-Jun-30 15:34N 50°36' E 000°31'1414.1
2015-Jun-30 14:33N 50°44' E 000°49'1413.5
2015-Jun-30 13:33N 50°53' E 001°06'1312.6
2015-Jun-30 12:33N 51°01' E 001°21'1111.2
2015-Jun-30 11:33N 51°08' E 001°35'1110.8
2015-Jun-30 10:33N 51°16' E 001°47'1312.7
2015-Jun-30 09:33N 51°27' E 001°57'1414.1
2015-Jun-30 08:33N 51°37' E 002°12'1514.9
2015-Jun-30 07:33N 51°48' E 002°28'1514.8
2015-Jun-30 06:34N 52°02' E 002°36'1514.7
2015-Jun-30 05:33N 52°17' E 002°37'1414.1
2015-Jun-30 04:33N 52°31' E 002°33'2712.7
2015-Jun-30 02:26N 52°58' E 002°27'1011.8
2015-Jun-30 01:33N 53°07' E 002°20'1311.8
2015-Jun-30 00:29N 53°17' E 002°06'1111.9
2015-Jun-29 23:33N 53°24' E 001°52'1211.8
2015-Jun-29 22:33N 53°34' E 001°41'3411.5
2015-Jun-29 19:33N 53°43' E 000°45'1313.5
2015-Jun-29 18:33N 53°39' E 000°23'1110.9
2015-Jun-29 17:33N 53°33' E 000°08'1111.1
2015-Jun-29 16:34N 53°38' W 000°09'1 0.5
2015-Jun-29 15:32N 53°38' W 000°10'0 0.0
2015-Jun-29 14:32N 53°38' W 000°10'0 0.0
2015-Jun-29 13:32N 53°38' W 000°10'0 0.0
2015-Jun-29 12:28N 53°38' W 000°10'0 0.0
2015-Jun-29 11:31N 53°38' W 000°10'0 0.0
2015-Jun-29 10:33N 53°38' W 000°10'0 0.0
2015-Jun-29 09:33N 53°38' W 000°10'0 0.0
2015-Jun-29 08:32N 53°38' W 000°10'0 0.0
2015-Jun-29 07:32N 53°38' W 000°10'0 0.0
2015-Jun-29 06:31N 53°38' W 000°10'0 0.0
2015-Jun-29 05:31N 53°38' W 000°10'0 0.0
2015-Jun-29 04:31N 53°38' W 000°10'0 0.0
2015-Jun-29 03:33N 53°38' W 000°10'0 0.0
2015-Jun-29 02:30N 53°38' W 000°10'0 0.0
2015-Jun-29 01:32N 53°38' W 000°10'0 0.0
2015-Jun-29 00:29N 53°38' W 000°10'0 0.0
2015-Jun-28 23:31N 53°38' W 000°10'0 0.0
2015-Jun-28 22:31N 53°38' W 000°10'0 0.0
2015-Jun-28 21:30N 53°38' W 000°10'0 0.0
2015-Jun-28 20:33N 53°38' W 000°10'0 0.0
2015-Jun-28 19:33N 53°38' W 000°10'0 0.0
2015-Jun-28 18:32N 53°38' W 000°10'0 0.0
2015-Jun-28 17:32N 53°38' W 000°10'0 0.0
2015-Jun-28 16:31N 53°38' W 000°10'0 0.0
2015-Jun-28 15:31N 53°38' W 000°10'0 0.0
2015-Jun-28 14:31N 53°38' W 000°10'0 0.0
2015-Jun-28 13:33N 53°38' W 000°10'0 0.0
2015-Jun-28 12:33N 53°38' W 000°10'0 0.0
2015-Jun-28 11:32N 53°38' W 000°10'0 0.0
2015-Jun-28 10:32N 53°38' W 000°10'0 0.0
2015-Jun-28 09:31N 53°38' W 000°10'0 0.1
2015-Jun-28 08:33N 53°38' W 000°10'6 6.0
2015-Jun-28 07:34N 53°35' W 000°00'10 9.7
2015-Jun-28 06:32N 53°34' E 000°16'7 7.1
2015-Jun-28 05:32N 53°40' E 000°23'7 3.1
2015-Jun-28 03:09N 53°47' E 000°27'0 0.1
2015-Jun-28 02:29N 53°47' E 000°26'0 0.0
2015-Jun-28 01:26N 53°47' E 000°26'0 0.0
2015-Jun-27 13:27N 53°47' E 000°27'0 0.0
2015-Jun-27 11:11N 53°47' E 000°27'0 0.0
2015-Jun-27 06:30N 53°48' E 000°26'0 0.1
2015-Jun-27 05:32N 53°48' E 000°27'0 0.1
2015-Jun-27 04:11N 53°48' E 000°27'0 0.0
2015-Jun-27 03:28N 53°47' E 000°27'0 0.0
2015-Jun-27 02:31N 53°47' E 000°27'0 0.0
2015-Jun-27 01:33N 53°47' E 000°27'0 0.0
2015-Jun-27 00:33N 53°47' E 000°27'0 0.0
2015-Jun-26 23:33N 53°47' E 000°27'0 0.0
2015-Jun-26 22:32N 53°47' E 000°27'0 0.0
2015-Jun-26 21:29N 53°48' E 000°27'  
Track history (hours):
 
Tides and Currents Weather Stations Pressure Air Temp Water Temp Dewpoint Dewpoint Depression Visibility Wind Speed Wind Dir Waves Ship Positions

Baltic Frost

Last reported at 2015-Jul-06 19:25 UTC. Time now 2015-Jul-07 02:35 UTC.
Position N 39°23' W 000°16'.

Length 182 m; draft 10.2 m.

Type: Ship. MMSI: 256495000.

Date/timePositionNaut miles runAvg speedWind from/ knotsBaromVisibWave heightAir tempDewpointWater temp
2015-Jul-06 19:25N 39°23' W 000°16'0 0.0
2015-Jul-06 18:19N 39°24' W 000°16'2 0.1
2015-Jul-06 00:33N 39°23' W 000°14'3712.3
2015-Jul-05 21:33N 38°57' E 000°21'1313.1
2015-Jul-05 20:32N 38°45' E 000°27'1212.1
2015-Jul-05 19:33N 38°34' E 000°22'1212.4
2015-Jul-05 18:34N 38°24' E 000°13'1313.3
2015-Jul-05 17:33N 38°13' E 000°03'1313.0
2015-Jul-05 16:33N 38°02' W 000°06'9 9.1
2015-Jul-05 15:33N 37°55' W 000°12'1313.4
2015-Jul-05 14:33N 37°44' W 000°22'1313.2
2015-Jul-05 13:33N 37°33' W 000°31'1313.1
2015-Jul-05 12:33N 37°24' W 000°44'1313.0
2015-Jul-05 11:33N 37°15' W 000°56'1513.0
2015-Jul-05 10:26N 37°06' W 001°10'1112.8
2015-Jul-05 09:33N 36°58' W 001°20'3812.6
2015-Jul-05 06:32N 36°33' W 001°56'1212.4
2015-Jul-05 05:32N 36°25' W 002°07'1211.7
2015-Jul-05 04:30N 36°21' W 002°22'1612.7
2015-Jul-05 03:16N 36°18' W 002°41'12113.7
2015-Jul-04 18:27N 36°01' W 005°09'1314.7
2015-Jul-04 17:34N 35°58' W 005°25'11912.7
2015-Jul-04 08:12N 36°11' W 007°51'912.9
2015-Jul-04 07:31N 36°14' W 008°01'1313.0
2015-Jul-04 06:33N 36°17' W 008°17'1312.9
2015-Jul-04 05:33N 36°20' W 008°32'1312.8
2015-Jul-04 04:33N 36°23' W 008°47'1312.7
2015-Jul-04 03:33N 36°27' W 009°03'1312.8
2015-Jul-04 02:33N 36°30' W 009°18'1212.3
2015-Jul-04 01:33N 36°38' W 009°29'1312.5
2015-Jul-04 00:33N 36°48' W 009°39'1313.2
2015-Jul-03 23:33N 37°01' W 009°42'1313.3
2015-Jul-03 22:34N 37°14' W 009°46'1413.5
2015-Jul-03 21:33N 37°27' W 009°50'1413.5
2015-Jul-03 20:33N 37°40' W 009°54'1313.2
2015-Jul-03 19:34N 37°53' W 009°58'1313.3
2015-Jul-03 18:33N 38°06' W 010°01'1313.1
2015-Jul-03 17:33N 38°19' W 010°05'1312.7
2015-Jul-03 16:33N 38°31' W 010°08'1313.4
2015-Jul-03 15:33N 38°44' W 010°11'1212.4
2015-Jul-03 14:33N 38°57' W 010°11'1312.5
2015-Jul-03 13:33N 39°09' W 010°11'1312.8
2015-Jul-03 12:33N 39°22' W 010°11'62112.4
2015-Jul-01 10:29N 49°06' W 005°16'5512.9
2015-Jul-01 06:12N 49°34' W 004°02'811.1
2015-Jul-01 05:29N 49°37' W 003°51'1410.9
2015-Jul-01 04:13N 49°44' W 003°33'1311.7
2015-Jul-01 03:04N 49°52' W 003°16'713.1
2015-Jul-01 02:31N 49°56' W 003°06'1414.1
2015-Jul-01 01:33N 50°00' W 002°46'1515.4
2015-Jul-01 00:33N 50°05' W 002°23'1615.9
2015-Jun-30 23:34N 50°09' W 001°59'1514.8
2015-Jun-30 22:33N 50°13' W 001°37'1313.3
2015-Jun-30 21:34N 50°17' W 001°17'1211.7
2015-Jun-30 20:34N 50°20' W 000°59'1110.4
2015-Jun-30 19:32N 50°22' W 000°43'1010.5
2015-Jun-30 18:33N 50°25' W 000°27'1611.9
2015-Jun-30 17:11N 50°30' W 000°03'813.3
2015-Jun-30 16:33N 50°32' E 000°09'1414.3
2015-Jun-30 15:34N 50°36' E 000°31'1414.1
2015-Jun-30 14:33N 50°44' E 000°49'1413.5
2015-Jun-30 13:33N 50°53' E 001°06'1312.6
2015-Jun-30 12:33N 51°01' E 001°21'1111.2
2015-Jun-30 11:33N 51°08' E 001°35'1110.8
2015-Jun-30 10:33N 51°16' E 001°47'1312.7
2015-Jun-30 09:33N 51°27' E 001°57'1414.1
2015-Jun-30 08:33N 51°37' E 002°12'1514.9
2015-Jun-30 07:33N 51°48' E 002°28'1514.8
2015-Jun-30 06:34N 52°02' E 002°36'1514.7
2015-Jun-30 05:33N 52°17' E 002°37'1414.1
2015-Jun-30 04:33N 52°31' E 002°33'2712.7
2015-Jun-30 02:26N 52°58' E 002°27'1011.8
2015-Jun-30 01:33N 53°07' E 002°20'1311.8
2015-Jun-30 00:29N 53°17' E 002°06'1111.9
2015-Jun-29 23:33N 53°24' E 001°52'1211.8
2015-Jun-29 22:33N 53°34' E 001°41'3411.5
2015-Jun-29 19:33N 53°43' E 000°45'1313.5
2015-Jun-29 18:33N 53°39' E 000°23'1110.9
2015-Jun-29 17:33N 53°33' E 000°08'1111.1
2015-Jun-29 16:34N 53°38' W 000°09'1 0.5
2015-Jun-29 15:32N 53°38' W 000°10'0 0.0
2015-Jun-29 14:32N 53°38' W 000°10'0 0.0
2015-Jun-29 13:32N 53°38' W 000°10'0 0.0
2015-Jun-29 12:28N 53°38' W 000°10'0 0.0
2015-Jun-29 11:31N 53°38' W 000°10'0 0.0
2015-Jun-29 10:33N 53°38' W 000°10'0 0.0
2015-Jun-29 09:33N 53°38' W 000°10'0 0.0
2015-Jun-29 08:32N 53°38' W 000°10'0 0.0
2015-Jun-29 07:32N 53°38' W 000°10'0 0.0
2015-Jun-29 06:31N 53°38' W 000°10'0 0.0
2015-Jun-29 05:31N 53°38' W 000°10'0 0.0
2015-Jun-29 04:31N 53°38' W 000°10'0 0.0
2015-Jun-29 03:33N 53°38' W 000°10'0 0.0
2015-Jun-29 02:30N 53°38' W 000°10'0 0.0
2015-Jun-29 01:32N 53°38' W 000°10'0 0.0
2015-Jun-29 00:29N 53°38' W 000°10'0 0.0
2015-Jun-28 23:31N 53°38' W 000°10'0 0.0
2015-Jun-28 22:31N 53°38' W 000°10'0 0.0
2015-Jun-28 21:30N 53°38' W 000°10'0 0.0
2015-Jun-28 20:33N 53°38' W 000°10'0 0.0
2015-Jun-28 19:33N 53°38' W 000°10'0 0.0
2015-Jun-28 18:32N 53°38' W 000°10'0 0.0
2015-Jun-28 17:32N 53°38' W 000°10'0 0.0
2015-Jun-28 16:31N 53°38' W 000°10'0 0.0
2015-Jun-28 15:31N 53°38' W 000°10'0 0.0
2015-Jun-28 14:31N 53°38' W 000°10'0 0.0
2015-Jun-28 13:33N 53°38' W 000°10'0 0.0
2015-Jun-28 12:33N 53°38' W 000°10'0 0.0
2015-Jun-28 11:32N 53°38' W 000°10'0 0.0
2015-Jun-28 10:32N 53°38' W 000°10'0 0.0
2015-Jun-28 09:31N 53°38' W 000°10'0 0.1
2015-Jun-28 08:33N 53°38' W 000°10'6 6.0
2015-Jun-28 07:34N 53°35' W 000°00'10 9.7
2015-Jun-28 06:32N 53°34' E 000°16'7 7.1
2015-Jun-28 05:32N 53°40' E 000°23'7 3.1
2015-Jun-28 03:09N 53°47' E 000°27'0 0.1
2015-Jun-28 02:29N 53°47' E 000°26'0 0.0
2015-Jun-28 01:26N 53°47' E 000°26'0 0.0
2015-Jun-27 13:27N 53°47' E 000°27'0 0.0
2015-Jun-27 11:11N 53°47' E 000°27'0 0.0
2015-Jun-27 06:30N 53°48' E 000°26'0 0.1
2015-Jun-27 05:32N 53°48' E 000°27'0 0.1
2015-Jun-27 04:11N 53°48' E 000°27'0 0.0
2015-Jun-27 03:28N 53°47' E 000°27'0 0.0
2015-Jun-27 02:31N 53°47' E 000°27'0 0.0
2015-Jun-27 01:33N 53°47' E 000°27'0 0.0
2015-Jun-27 00:33N 53°47' E 000°27'0 0.0
2015-Jun-26 23:33N 53°47' E 000°27'0 0.0
2015-Jun-26 22:32N 53°47' E 000°27'0 0.0
2015-Jun-26 21:29N 53°48' E 000°27'  

Dump ship's entire track history